createdAt,value
2019-03-03T00:00:55.163Z,53.10
2019-03-03T00:03:50.606Z,53.20
2019-03-03T00:06:46.143Z,53.10
2019-03-03T00:09:41.793Z,53.60
2019-03-03T00:12:37.501Z,53.40
2019-03-03T00:15:33.505Z,53.20
2019-03-03T00:18:29.398Z,53.30
2019-03-03T00:21:38.520Z,53.30
2019-03-03T00:24:34.083Z,53.40
2019-03-03T00:27:29.555Z,53.40
2019-03-03T00:30:25.267Z,53.50
2019-03-03T00:33:21.044Z,53.60
2019-03-03T00:36:16.506Z,53.60
2019-03-03T00:39:20.339Z,53.60
2019-03-03T00:42:38.450Z,53.70
2019-03-03T00:45:47.501Z,53.70
2019-03-03T00:49:01.014Z,53.80
2019-03-03T00:52:06.598Z,53.70
2019-03-03T00:55:20.879Z,53.90
2019-03-03T00:58:31.828Z,53.80
2019-03-03T01:01:40.336Z,53.80
2019-03-03T01:05:04.088Z,53.70
2019-03-03T01:08:31.071Z,53.50
2019-03-03T01:11:44.200Z,53.50
2019-03-03T01:15:02.517Z,53.40
2019-03-03T01:18:16.906Z,53.50
2019-03-03T01:21:29.701Z,53.50
2019-03-03T01:24:46.420Z,53.60
2019-03-03T01:27:43.445Z,53.60
2019-03-03T01:30:40.047Z,53.80
2019-03-03T01:33:36.979Z,54.00
2019-03-03T01:36:33.621Z,54.00
2019-03-03T01:39:29.861Z,54.40
2019-03-03T01:42:26.728Z,54.60
2019-03-03T01:45:23.304Z,54.90
2019-03-03T01:48:20.023Z,55.00
2019-03-03T01:51:17.311Z,55.10
2019-03-03T01:54:13.900Z,55.20
2019-03-03T01:57:10.960Z,55.50
2019-03-03T02:00:08.196Z,55.40
2019-03-03T02:03:05.069Z,55.70
2019-03-03T02:06:01.725Z,55.70
2019-03-03T02:08:58.667Z,55.90
2019-03-03T02:11:55.825Z,56.30
2019-03-03T02:14:52.568Z,56.70
2019-03-03T02:17:49.538Z,57.00
2019-03-03T02:20:46.086Z,57.30
2019-03-03T02:23:42.897Z,57.70
2019-03-03T02:26:40.361Z,58.20
2019-03-03T02:29:49.486Z,58.40
2019-03-03T02:32:46.555Z,58.80
2019-03-03T02:35:43.859Z,59.10
2019-03-03T02:38:40.866Z,59.40
2019-03-03T02:41:38.044Z,59.80
2019-03-03T02:44:34.774Z,60.10
2019-03-03T02:47:31.339Z,60.30
2019-03-03T02:50:28.211Z,60.00
2019-03-03T02:53:24.559Z,59.90
2019-03-03T02:56:21.370Z,59.80
2019-03-03T02:59:18.471Z,60.20
2019-03-03T03:02:30.939Z,60.30
2019-03-03T03:05:45.288Z,60.50
2019-03-03T03:08:59.639Z,60.70
2019-03-03T03:12:22.261Z,60.90
2019-03-03T03:15:30.819Z,61.20
2019-03-03T03:18:45.966Z,61.20
2019-03-03T03:22:03.082Z,61.50
2019-03-03T03:25:20.822Z,61.70
2019-03-03T03:28:42.467Z,61.90
2019-03-03T03:32:06.143Z,61.50
2019-03-03T03:35:29.831Z,61.70
2019-03-03T03:38:37.825Z,61.60
2019-03-03T03:41:51.978Z,61.60
2019-03-03T03:45:03.533Z,61.70
2019-03-03T03:48:21.555Z,61.80
2019-03-03T03:51:48.127Z,62.10
2019-03-03T03:55:20.945Z,62.00
2019-03-03T03:58:31.187Z,61.80
2019-03-03T04:01:48.428Z,61.60
2019-03-03T04:05:05.110Z,61.20
2019-03-03T04:08:19.292Z,60.90
2019-03-03T04:11:32.408Z,60.80
2019-03-03T04:14:49.097Z,60.80
2019-03-03T04:18:06.819Z,60.70
2019-03-03T04:21:08.738Z,60.70
2019-03-03T04:24:18.462Z,60.80
2019-03-03T04:27:47.255Z,61.00
2019-03-03T04:31:19.027Z,61.00
2019-03-03T04:34:48.123Z,61.00
2019-03-03T04:38:00.228Z,61.10
2019-03-03T04:41:04.595Z,61.10
2019-03-03T04:44:05.037Z,61.10
2019-03-03T04:47:15.204Z,61.30
2019-03-03T04:50:32.360Z,61.80
2019-03-03T04:53:47.319Z,62.20
2019-03-03T04:56:57.899Z,63.00
2019-03-03T05:00:09.738Z,63.60
2019-03-03T05:03:28.967Z,64.00
2019-03-03T05:06:38.740Z,64.70
2019-03-03T05:09:46.551Z,65.40
2019-03-03T05:13:09.989Z,65.70
2019-03-03T05:16:21.590Z,66.00
2019-03-03T05:19:24.161Z,66.50
2019-03-03T05:22:19.595Z,66.70
2019-03-03T05:25:15.645Z,67.30
2019-03-03T05:28:10.880Z,68.20
2019-03-03T05:31:06.563Z,68.30
2019-03-03T05:34:02.055Z,68.30
2019-03-03T05:36:57.803Z,68.80
2019-03-03T05:39:53.464Z,69.00
2019-03-03T05:42:49.209Z,69.50
2019-03-03T05:45:44.620Z,69.80
2019-03-03T05:48:40.463Z,70.00
2019-03-03T05:51:36.105Z,70.30
2019-03-03T05:54:32.047Z,70.50
2019-03-03T05:57:27.462Z,70.70
2019-03-03T06:00:23.012Z,70.90
2019-03-03T06:03:18.932Z,71.30
2019-03-03T06:06:15.229Z,71.30
2019-03-03T06:09:11.953Z,71.40
2019-03-03T06:12:08.105Z,71.90
2019-03-03T06:15:03.759Z,72.00
2019-03-03T06:17:59.166Z,72.30
2019-03-03T06:20:54.601Z,72.70
2019-03-03T06:23:50.075Z,72.70
2019-03-03T06:26:46.033Z,72.50
2019-03-03T06:29:41.343Z,72.60
2019-03-03T06:32:37.176Z,72.60
2019-03-03T06:35:32.894Z,72.70
2019-03-03T06:38:28.724Z,72.60
2019-03-03T06:41:24.747Z,72.50
2019-03-03T06:44:20.475Z,72.40
2019-03-03T06:47:16.363Z,72.40
2019-03-03T06:50:15.277Z,72.20
2019-03-03T06:53:12.647Z,72.70
2019-03-03T06:56:09.296Z,72.60
2019-03-03T06:59:04.306Z,72.50
2019-03-03T07:01:59.475Z,72.00
2019-03-03T07:04:55.431Z,71.70
2019-03-03T07:07:51.936Z,71.60
2019-03-03T07:10:47.879Z,71.30
2019-03-03T07:13:43.779Z,71.00
2019-03-03T07:16:39.156Z,71.10
2019-03-03T07:19:33.983Z,71.20
2019-03-03T07:22:29.060Z,71.00
2019-03-03T07:25:24.781Z,70.70
2019-03-03T07:28:20.008Z,70.00
2019-03-03T07:31:15.786Z,69.80
2019-03-03T07:34:11.506Z,69.70
2019-03-03T07:37:06.669Z,69.60
2019-03-03T07:40:01.745Z,69.90
2019-03-03T07:42:57.787Z,70.00
2019-03-03T07:45:58.206Z,70.00
2019-03-03T07:48:52.997Z,69.70
2019-03-03T07:51:48.052Z,69.40
2019-03-03T07:54:43.051Z,68.90
2019-03-03T07:57:38.360Z,68.40
2019-03-03T08:00:33.708Z,67.80
2019-03-03T08:03:29.025Z,67.40
2019-03-03T08:06:24.055Z,66.10
2019-03-03T08:09:20.144Z,66.60
2019-03-03T08:12:15.172Z,66.10
2019-03-03T08:15:10.450Z,65.20
2019-03-03T08:18:06.668Z,64.90
2019-03-03T08:21:02.382Z,65.10
2019-03-03T08:23:57.462Z,65.00
2019-03-03T08:26:52.864Z,65.00
2019-03-03T08:29:47.846Z,64.70
2019-03-03T08:32:43.043Z,64.40
2019-03-03T08:35:38.306Z,64.00
2019-03-03T08:38:33.525Z,62.30
2019-03-03T08:41:29.091Z,62.60
2019-03-03T08:44:40.885Z,63.50
2019-03-03T08:47:42.648Z,62.20
2019-03-03T08:50:58.084Z,61.80
2019-03-03T08:54:23.566Z,60.90
2019-03-03T08:57:37.299Z,60.90
2019-03-03T09:00:51.220Z,59.90
2019-03-03T09:04:07.017Z,59.20
2019-03-03T09:07:22.395Z,59.50
2019-03-03T09:10:27.218Z,58.70
2019-03-03T09:13:38.321Z,58.20
2019-03-03T09:16:49.799Z,57.10
2019-03-03T09:20:14.029Z,56.50
2019-03-03T09:23:29.225Z,57.00
2019-03-03T09:26:57.992Z,56.90
2019-03-03T09:30:14.541Z,56.80
2019-03-03T09:33:27.805Z,56.60
2019-03-03T09:36:45.317Z,55.80
2019-03-03T09:39:58.241Z,55.90
2019-03-03T09:43:20.388Z,56.10
2019-03-03T09:46:25.716Z,56.10
2019-03-03T09:49:42.950Z,55.70
2019-03-03T09:53:02.127Z,55.90
2019-03-03T09:56:21.160Z,56.40
2019-03-03T09:59:34.601Z,56.60
2019-03-03T10:02:37.204Z,55.60
2019-03-03T10:05:50.503Z,54.50
2019-03-03T10:09:06.439Z,53.30
2019-03-03T10:12:08.841Z,52.10
2019-03-03T10:15:40.067Z,51.50
2019-03-03T10:18:51.432Z,50.60
2019-03-03T10:22:00.887Z,50.20
2019-03-03T10:25:14.365Z,50.00
2019-03-03T10:28:19.144Z,49.50
2019-03-03T10:31:31.698Z,49.90
2019-03-03T10:34:51.043Z,49.70
2019-03-03T10:37:55.456Z,49.00
2019-03-03T10:41:00.829Z,49.20
2019-03-03T10:44:13.589Z,49.10
2019-03-03T10:47:25.109Z,49.00
2019-03-03T10:50:38.098Z,49.20
2019-03-03T10:53:51.887Z,48.90
2019-03-03T10:57:10.990Z,49.00
2019-03-03T11:00:21.656Z,49.40
2019-03-03T11:03:37.531Z,49.10
2019-03-03T11:06:43.199Z,48.80
2019-03-03T11:09:54.747Z,49.20
2019-03-03T11:12:56.820Z,49.40
2019-03-03T11:16:05.764Z,49.70
2019-03-03T11:19:20.140Z,49.70
2019-03-03T11:22:33.020Z,49.90
2019-03-03T11:25:44.621Z,50.10
2019-03-03T11:28:57.180Z,50.50
2019-03-03T11:32:13.789Z,50.50
2019-03-03T11:35:32.342Z,50.60
2019-03-03T11:38:49.433Z,50.80
2019-03-03T11:42:01.873Z,50.90
2019-03-03T11:45:14.958Z,50.90
2019-03-03T11:48:19.821Z,50.90
2019-03-03T11:51:31.943Z,50.70
2019-03-03T11:54:56.926Z,50.80
2019-03-03T11:58:08.229Z,50.70
2019-03-03T12:01:20.800Z,51.00
2019-03-03T12:04:43.801Z,50.90
2019-03-03T12:07:53.317Z,50.80
2019-03-03T12:11:05.042Z,50.80
2019-03-03T12:14:16.954Z,50.90
2019-03-03T12:17:35.889Z,51.00
2019-03-03T12:20:48.662Z,51.10
2019-03-03T12:24:02.017Z,51.30
2019-03-03T12:27:14.475Z,51.60
2019-03-03T12:30:30.362Z,52.00
2019-03-03T12:33:34.328Z,52.30
2019-03-03T12:36:43.292Z,52.50
2019-03-03T12:39:54.448Z,52.50
2019-03-03T12:43:07.481Z,52.70
2019-03-03T12:46:14.582Z,52.80
2019-03-03T12:49:37.964Z,53.10
2019-03-03T12:52:56.929Z,53.30
2019-03-03T12:56:07.810Z,53.70
2019-03-03T12:59:30.088Z,53.90
2019-03-03T13:02:48.733Z,54.20
2019-03-03T13:06:01.135Z,54.50
2019-03-03T13:09:12.498Z,54.70
2019-03-03T13:12:35.234Z,54.80
2019-03-03T13:15:46.227Z,55.00
2019-03-03T13:18:57.773Z,55.20
2019-03-03T13:22:06.637Z,55.20
2019-03-03T13:25:22.265Z,55.30
2019-03-03T13:28:50.227Z,55.50
2019-03-03T13:32:02.110Z,55.80
2019-03-03T13:35:08.683Z,55.90
2019-03-03T13:38:15.657Z,56.10
2019-03-03T13:41:25.563Z,56.30
2019-03-03T13:44:20.476Z,56.40
2019-03-03T13:47:14.949Z,56.50
2019-03-03T13:50:11.011Z,56.70
2019-03-03T13:53:05.494Z,56.90
2019-03-03T13:56:00.272Z,57.10
2019-03-03T13:58:55.230Z,57.10
2019-03-03T14:01:50.224Z,57.30
2019-03-03T14:04:46.163Z,57.50
2019-03-03T14:07:41.596Z,57.80
2019-03-03T14:10:37.450Z,58.00
2019-03-03T14:13:32.759Z,58.10
2019-03-03T14:16:27.546Z,58.20
2019-03-03T14:19:22.630Z,58.30
2019-03-03T14:22:18.163Z,58.50
2019-03-03T14:25:13.115Z,58.60
2019-03-03T14:28:08.546Z,58.50
2019-03-03T14:31:03.561Z,58.60
2019-03-03T14:33:59.824Z,58.80
2019-03-03T14:36:55.977Z,59.00
2019-03-03T14:39:51.987Z,59.00
2019-03-03T14:42:47.337Z,59.00
2019-03-03T14:45:42.134Z,59.00
2019-03-03T14:48:37.204Z,59.00
2019-03-03T14:51:33.135Z,59.10
2019-03-03T14:54:28.098Z,59.00
2019-03-03T14:57:23.575Z,59.10
2019-03-03T15:00:30.656Z,59.00
2019-03-03T15:03:26.704Z,59.00
2019-03-03T15:06:24.609Z,58.90
2019-03-03T15:09:29.500Z,58.90
2019-03-03T15:12:25.149Z,59.00
2019-03-03T15:15:20.407Z,59.00
2019-03-03T15:18:16.655Z,59.10
2019-03-03T15:21:11.432Z,59.10
2019-03-03T15:24:07.031Z,59.00
2019-03-03T15:27:02.211Z,59.10
2019-03-03T15:29:57.802Z,59.00
2019-03-03T15:32:52.997Z,58.90
2019-03-03T15:35:48.781Z,58.80
2019-03-03T15:38:43.718Z,58.70
2019-03-03T15:41:38.635Z,58.60
2019-03-03T15:44:34.042Z,58.60
2019-03-03T15:47:28.942Z,58.60
2019-03-03T15:50:24.177Z,58.60
2019-03-03T15:53:19.449Z,58.70
2019-03-03T15:56:15.229Z,58.70
2019-03-03T15:59:10.422Z,58.70
2019-03-03T16:02:07.464Z,58.70
2019-03-03T16:05:02.046Z,58.50
2019-03-03T16:07:58.031Z,58.50
2019-03-03T16:10:53.772Z,58.50
2019-03-03T16:13:49.095Z,58.30
2019-03-03T16:16:43.932Z,58.10
2019-03-03T16:19:38.682Z,58.10
2019-03-03T16:22:34.110Z,58.00
2019-03-03T16:25:29.073Z,57.80
2019-03-03T16:28:24.441Z,57.70
2019-03-03T16:31:19.599Z,57.60
2019-03-03T16:34:15.059Z,57.40
2019-03-03T16:37:10.472Z,57.50
2019-03-03T16:40:05.286Z,57.50
2019-03-03T16:43:00.537Z,57.70
2019-03-03T16:45:55.795Z,57.80
2019-03-03T16:48:51.119Z,57.80
2019-03-03T16:51:46.284Z,57.90
2019-03-03T16:54:40.973Z,57.90
2019-03-03T16:57:37.135Z,58.10
2019-03-03T17:00:32.169Z,58.10
2019-03-03T17:03:27.428Z,58.30
2019-03-03T17:06:22.585Z,58.50
2019-03-03T17:09:17.819Z,58.70
2019-03-03T17:12:12.959Z,58.80
2019-03-03T17:15:08.324Z,58.80
2019-03-03T17:18:03.428Z,59.00
2019-03-03T17:20:58.289Z,59.00
2019-03-03T17:23:53.456Z,59.10
2019-03-03T17:26:48.191Z,59.20
2019-03-03T17:29:44.809Z,59.20
2019-03-03T17:32:39.797Z,59.40
2019-03-03T17:35:36.403Z,59.50
2019-03-03T17:38:31.299Z,59.50
2019-03-03T17:41:26.834Z,59.60
2019-03-03T17:44:21.669Z,59.60
2019-03-03T17:47:16.319Z,59.70
2019-03-03T17:50:15.194Z,59.80
2019-03-03T17:53:10.243Z,59.90
2019-03-03T17:56:05.280Z,60.00
2019-03-03T17:59:00.275Z,60.20
2019-03-03T18:01:56.218Z,60.20
2019-03-03T18:04:50.891Z,60.30
2019-03-03T18:07:46.006Z,60.30
2019-03-03T18:10:41.377Z,60.60
2019-03-03T18:13:36.377Z,60.70
2019-03-03T18:16:31.344Z,60.90
2019-03-03T18:19:26.225Z,61.10
2019-03-03T18:22:20.865Z,61.30
2019-03-03T18:25:17.043Z,61.20
2019-03-03T18:28:12.305Z,61.30
2019-03-03T18:31:06.845Z,61.30
2019-03-03T18:34:02.063Z,61.30
2019-03-03T18:36:57.031Z,61.40
2019-03-03T18:39:52.053Z,61.50
2019-03-03T18:42:46.705Z,61.60
2019-03-03T18:45:42.139Z,61.70
2019-03-03T18:48:37.267Z,61.00
2019-03-03T18:51:35.319Z,61.90
2019-03-03T18:54:31.103Z,62.00
2019-03-03T18:57:26.101Z,62.30
2019-03-03T19:00:23.760Z,62.20
2019-03-03T19:03:18.900Z,62.50
2019-03-03T19:06:13.803Z,62.60
2019-03-03T19:09:10.547Z,62.50
2019-03-03T19:12:05.775Z,62.70
2019-03-03T19:15:00.461Z,62.90
2019-03-03T19:17:55.906Z,63.10
2019-03-03T19:20:50.966Z,63.20
2019-03-03T19:23:46.408Z,63.40
2019-03-03T19:26:41.065Z,63.40
2019-03-03T19:29:35.936Z,63.30
2019-03-03T19:32:31.275Z,63.50
2019-03-03T19:35:26.181Z,63.60
2019-03-03T19:38:21.459Z,63.70
2019-03-03T19:41:16.932Z,63.70
2019-03-03T19:44:12.801Z,63.80
2019-03-03T19:47:08.451Z,64.00
2019-03-03T19:50:03.612Z,64.20
2019-03-03T19:52:59.778Z,64.20
2019-03-03T19:55:55.265Z,64.20
2019-03-03T19:58:50.847Z,64.20
2019-03-03T20:01:46.801Z,64.30
2019-03-03T20:04:42.382Z,64.40
2019-03-03T20:07:38.008Z,64.50
2019-03-03T20:10:33.847Z,64.50
2019-03-03T20:13:29.718Z,64.70
2019-03-03T20:16:24.772Z,64.80
2019-03-03T20:19:20.149Z,64.70
2019-03-03T20:22:15.731Z,64.80
2019-03-03T20:25:11.883Z,64.70
2019-03-03T20:28:07.085Z,64.60
2019-03-03T20:31:02.944Z,64.50
2019-03-03T20:33:59.067Z,64.60
2019-03-03T20:36:54.515Z,64.60
2019-03-03T20:39:50.180Z,64.60
2019-03-03T20:42:45.968Z,64.60
2019-03-03T20:45:41.405Z,64.70
2019-03-03T20:48:36.990Z,64.70
2019-03-03T20:51:32.282Z,64.60
2019-03-03T20:54:27.912Z,64.70
2019-03-03T20:57:23.199Z,64.70
2019-03-03T21:00:20.876Z,64.70
2019-03-03T21:03:16.544Z,64.90
2019-03-03T21:06:11.839Z,64.80
2019-03-03T21:09:08.171Z,64.90
2019-03-03T21:12:04.724Z,65.00
2019-03-03T21:15:00.298Z,65.00
2019-03-03T21:17:55.510Z,65.00
2019-03-03T21:20:50.806Z,65.00
2019-03-03T21:23:46.211Z,65.00
2019-03-03T21:26:42.504Z,65.00
2019-03-03T21:29:38.036Z,65.00
2019-03-03T21:32:33.646Z,65.00
2019-03-03T21:35:29.552Z,65.00
2019-03-03T21:38:25.694Z,65.00
2019-03-03T21:41:21.949Z,65.20
2019-03-03T21:44:17.208Z,65.10
2019-03-03T21:47:13.117Z,65.20
2019-03-03T21:50:09.202Z,65.30
2019-03-03T21:53:04.525Z,65.30
2019-03-03T21:56:00.152Z,65.30
2019-03-03T21:58:55.995Z,65.30
2019-03-03T22:01:51.754Z,65.40
2019-03-03T22:04:46.877Z,65.40
2019-03-03T22:07:42.536Z,65.50
2019-03-03T22:10:37.874Z,65.60
2019-03-03T22:13:33.714Z,65.70
2019-03-03T22:16:29.195Z,66.50
2019-03-03T22:19:24.664Z,65.90
2019-03-03T22:22:20.511Z,66.00
2019-03-03T22:25:16.875Z,66.00
2019-03-03T22:28:12.222Z,65.80
2019-03-03T22:31:07.343Z,65.70
2019-03-03T22:34:02.781Z,65.60
2019-03-03T22:36:58.601Z,65.70
2019-03-03T22:39:54.497Z,65.80
2019-03-03T22:42:50.188Z,66.10
2019-03-03T22:45:45.996Z,66.00
2019-03-03T22:48:42.048Z,66.20
2019-03-03T22:51:37.879Z,66.30
2019-03-03T22:54:33.100Z,66.50
2019-03-03T22:57:28.517Z,66.40
2019-03-03T23:00:47.151Z,66.50
2019-03-03T23:03:58.051Z,66.50
2019-03-03T23:07:09.034Z,66.60
2019-03-03T23:10:49.359Z,66.70
2019-03-03T23:13:53.277Z,66.70
2019-03-03T23:17:14.288Z,66.90
2019-03-03T23:20:16.581Z,67.10
2019-03-03T23:23:56.934Z,67.10
2019-03-03T23:26:52.642Z,67.10
2019-03-03T23:29:47.928Z,66.90
2019-03-03T23:32:43.356Z,67.10
2019-03-03T23:35:38.968Z,67.20
2019-03-03T23:38:34.479Z,67.20
2019-03-03T23:41:30.739Z,67.30
2019-03-03T23:44:26.678Z,67.20
2019-03-03T23:47:22.783Z,67.30
2019-03-03T23:50:18.164Z,67.50
2019-03-03T23:53:13.250Z,67.40
2019-03-03T23:56:08.176Z,67.50
2019-03-03T23:59:04.000Z,67.50
